• Join FlightAware (Why Join?)
  • Login
  • US Flag 
Gobble Gobble! 
11:29PM EST


 

Airport Tracker/Info


-or-


 

Live Flight TrackerFlight Track Log ✈ SKW6306 ✈ 30-Jun-2013 ✈ KDEN - CYXE

Flight Track Log - Related Links

Times and Time Zones

All times are in EDT time to prevent confusion due to time zone crossing. See the SKW6306 flight status page for this flight to view local times or setup timezone preferences in your user account.

Time Position Orientation Groundspeed Altitude Reporting Facility
EDT Latitude Longitude Course Direction KTS MPH feet Rate Location/Type
02:34PM 39.9500 -104.6833 11° North 219 252 8,300  Level Denver TRACON
02:35PM 40.0167 -104.6667 11° North 268 308 9,800 1,680 Climbing Denver TRACON
02:36PM 40.1000 -104.6833 351° North 284 327 11,700 2,040 Climbing Denver TRACON
02:37PM 40.1833 -104.7000 351° North 264 304 13,900 1,860 Climbing Denver TRACON
02:39PM 40.2753 -104.7278 347° North 294 338 16,000 1,620 Climbing Denver Center
02:40PM 40.3553 -104.7478 349° North 293 337 17,700 1,380 Climbing Denver Center
02:41PM 40.4453 -104.7686 350° North 309 356 18,900 1,260 Climbing Denver Center
02:42PM 40.5289 -104.7903 349° North 304 350 20,400 1,260 Climbing Denver Center
02:43PM 40.6222 -104.8119 350° North 317 365 21,600 960 Climbing Denver Center
02:44PM 40.7100 -104.8325 350° North 321 369 22,400 840 Climbing Denver Center
02:45PM 40.7964 -104.8528 350° North 311 358 23,400 960 Climbing Denver Center
02:46PM 40.8953 -104.9017 340° North 329 379 24,500 840 Climbing Denver Center
02:47PM 40.9803 -104.9439 339° North 337 388 25,200 720 Climbing Denver Center
02:48PM 41.0828 -104.9947 340° North 347 399 26,000 720 Climbing Denver Center
02:49PM 41.1700 -105.0364 340° North 348 400 26,800 720 Climbing Denver Center
02:50PM 41.2875 -105.0958 339° North 353 406 27,700 600 Climbing Denver Center
02:51PM 41.3761 -105.1403 339° North 356 410 28,200 480 Climbing Denver Center
02:52PM 41.4831 -105.1942 339° North 366 421 28,800 480 Climbing Denver Center
02:53PM 41.5750 -105.2381 340° North 368 423 29,300 480 Climbing Denver Center
02:54PM 41.6906 -105.2592 352° North 372 428 29,800 480 Climbing Denver Center
02:55PM 41.7900 -105.2786 352° North 376 433 30,300 480 Climbing Denver Center
02:57PM 41.9386 -105.3039 352° North  Level FlightAware Approximate
02:57PM 41.9528 -105.3094 352° North 375 432 31,100  Level Salt Lake Center
02:59PM 42.1022 -105.3372 352° North 371 427 31,900 240 Climbing Denver Center
03:01PM 42.3169 -105.3792 352° North 372 428 32,000  Climbing Denver Center
03:02PM 42.5123 -105.4109 353° North  Level FlightAware Approximate
03:02PM 42.4964 -105.4142 353° North 373 429 32,000  Level Salt Lake Center
03:03PM 42.5958 -105.4333 352° North 374 430 32,000  Level Salt Lake Center
03:04PM 42.7131 -105.4556 352° North 377 434 32,000  Level Salt Lake Center
03:06PM 42.8286 -105.4773 352° North  Level FlightAware Approximate
03:06PM 42.8647 -105.4839 352° North 382 440 32,000  Level Denver Center
03:07PM 42.9675 -105.5028 352° North 386 444 32,000  Level Denver Center
03:08PM 43.0689 -105.5242 351° North 385 443 32,000  Level Denver Center
03:09PM 43.1900 -105.5467 352° North 391 450 32,000  Level Denver Center
03:10PM 43.2925 -105.5667 352° North 389 448 32,000  Level Denver Center
03:11PM 43.4136 -105.5914 352° North 393 452 32,000  Level Denver Center
03:12PM 43.5175 -105.6108 352° North 394 453 32,000  Level Denver Center
03:13PM 43.6378 -105.6356 352° North 392 451 32,000  Level Denver Center
03:14PM 43.7408 -105.6567 352° North 392 451 32,000  Level Denver Center
03:15PM 43.8622 -105.6803 352° North 393 452 32,000  Level Denver Center
03:16PM 43.9650 -105.7008 352° North 392 451 32,000  Level Denver Center
03:17PM 44.0847 -105.7253 352° North 390 449 32,000  Level Denver Center
03:18PM 44.1869 -105.7450 352° North 388 447 32,000  Level Denver Center
03:19PM 44.3064 -105.7700 351° North 388 447 32,000  Level Denver Center
03:20PM 44.3750 -105.7836 352° North 387 445 32,000  Level Salt Lake Center
03:21PM 44.4761 -105.8058 351° North 385 443 32,000  Level Salt Lake Center
03:22PM 44.5783 -105.8244 353° North 385 443 32,000  Level Salt Lake Center
03:23PM 44.6961 -105.8494 351° North 384 442 32,000  Level Salt Lake Center
03:24PM 44.7969 -105.8719 351° North 383 441 32,000  Level Salt Lake Center
03:25PM 44.9144 -105.8947 352° North 382 440 32,000  Level Salt Lake Center
03:26PM 45.0144 -105.9175 351° North 381 438 32,000  Level Salt Lake Center
03:27PM 45.1314 -105.9403 352° North 380 437 32,000  Level Salt Lake Center
03:28PM 45.2328 -105.9622 351° North 383 441 32,000  Level Salt Lake Center
03:29PM 45.3381 -105.9856 351° North 383 441 32,000  Level Salt Lake Center
03:30PM 45.4433 -106.0081 351° North 383 441 32,000  Level Salt Lake Center
03:31PM 45.5486 -106.0297 352° North 383 441 32,000  Level Salt Lake Center
03:32PM 45.6747 -106.0569 351° North 382 440 32,000  Level Salt Lake Center
03:33PM 45.7789 -106.0794 351° North 381 438 32,000  Level Salt Lake Center
03:34PM 45.8833 -106.0983 353° North 380 437 32,000  Level Salt Lake Center
03:35PM 45.9881 -106.1208 352° North 379 436 32,000  Level Salt Lake Center
03:37PM 46.1067 -106.1477 351° North  Level FlightAware Approximate
03:37PM 46.1961 -106.1650 351° North 379 436 32,000  Level Salt Lake Center
03:39PM 46.3214 -106.1922 351° North 379 436 32,000  Level Salt Lake Center
03:40PM 46.4261 -106.2169 351° North 379 436 32,000  Level Salt Lake Center
03:41PM 46.5319 -106.2411 351° North 381 438 32,000  Level Salt Lake Center
03:42PM 46.6367 -106.2639 352° North 382 440 32,000  Level Salt Lake Center
03:43PM 46.7408 -106.2872 351° North 381 438 32,000  Level Salt Lake Center
03:44PM 46.8447 -106.3094 352° North 380 437 32,000  Level Salt Lake Center
03:45PM 46.9703 -106.3386 351° North 379 436 32,000  Level Salt Lake Center
03:46PM 47.0739 -106.3617 351° North 379 436 32,000  Level Salt Lake Center
03:47PM 47.1778 -106.3856 351° North 378 435 32,000  Level Salt Lake Center
03:48PM 47.2817 -106.4089 351° North 378 435 32,000  Level Salt Lake Center
03:49PM 47.3875 -106.4333 351° North 380 437 32,000  Level Salt Lake Center
03:50PM 47.4914 -106.4569 351° North 380 437 32,000  Level Salt Lake Center
03:51PM 47.6178 -106.4867 351° North 381 438 32,000  Level Salt Lake Center
03:52PM 47.7231 -106.5106 351° North 381 438 32,000  Level Salt Lake Center
03:53PM 47.8267 -106.5342 351° North 380 437 32,000  Level Salt Lake Center
03:54PM 47.9303 -106.5603 350° North 379 436 32,000  Level Salt Lake Center
03:55PM 48.0369 -106.5833 352° North 381 438 32,000  Level Salt Lake Center
03:56PM 48.1422 -106.6092 351° North 384 442 32,000  Level Salt Lake Center
03:57PM 48.2653 -106.6508 347° North 382 440 32,000  Level Salt Lake Center
03:58PM 48.3650 -106.7008 342° North 381 438 32,000  Level Salt Lake Center
04:00PM 48.5500 -106.8333 335° Northwest 380 437 32,000  Level Winnipeg Center
04:01PM 48.6500 -106.8833 342° North 390 449 32,000  Level Winnipeg Center
04:02PM 48.7500 -106.9333 342° North 390 449 32,000  Level Winnipeg Center
04:03PM 48.8667 -106.9833 344° North 380 437 32,000  Level Winnipeg Center
04:04PM 48.9667 -107.0167 348° North 390 449 32,000  Level Winnipeg Center
04:05PM 49.0500 -107.1000 327° Northwest 390 449 32,000  Level Winnipeg Center
04:06PM 49.1667 -107.1500 344° North 390 449 32,000  Level Winnipeg Center
04:07PM 49.2667 -107.1833 348° North 390 449 32,000  Level Winnipeg Center
04:08PM 49.3667 -107.2333 342° North 390 449 32,000  Level Winnipeg Center
04:09PM 49.4833 -107.2833 344° North 390 449 32,000  Level Winnipeg Center
04:10PM 49.5667 -107.3500 333° Northwest 390 449 32,000  Level Winnipeg Center
04:11PM 49.6833 -107.4167 340° North 390 449 32,000  Level Winnipeg Center
04:12PM 49.7833 -107.4500 348° North 390 449 32,000  Level Winnipeg Center
04:13PM 49.8833 -107.5000 342° North 400 460 32,000  Level Winnipeg Center
04:14PM 49.9833 -107.5500 342° North 390 449 32,000  Level Winnipeg Center
04:15PM 50.0833 -107.6333 332° Northwest 390 449 32,000  Level Winnipeg Center
04:16PM 50.2000 -107.6833 345° North 390 449 32,000  Level Winnipeg Center
04:17PM 50.3000 -107.7000 354° North 390 449 32,000  Level Winnipeg Center
04:18PM 50.4167 -107.7000 360° North 400 460 32,000  Level Winnipeg Center
04:19PM 50.5167 -107.7000 360° North 400 460 32,000  Level Winnipeg Center
04:20PM 50.6333 -107.6833 North 400 460 32,000  Level Winnipeg Center
04:21PM 50.7333 -107.6833 360° North 400 460 32,000  Level Winnipeg Center
04:22PM 50.8667 -107.6500 North 400 460 32,000 -600 Level Winnipeg Center
04:23PM 50.9667 -107.6500 360° North 400 460 30,900 -1,500 Descending Winnipeg Center
04:24PM 51.0833 -107.6500 360° North 400 460 29,100 -1,200 Descending Winnipeg Center
04:25PM 51.1833 -107.6167 12° North 390 449 28,600 -1,320 Descending Winnipeg Center
04:26PM 51.2833 -107.5833 12° North 380 437 26,500 -2,400 Descending Winnipeg Center
04:27PM 51.3833 -107.5000 27° Northeast 380 437 23,900 -2,520 Descending Winnipeg Center
04:28PM 51.4667 -107.4500 20° North 380 437 21,500 -2,580 Descending Winnipeg Center
04:29PM 51.5667 -107.3833 23° Northeast 370 426 18,800 -2,520 Descending Winnipeg Center
04:30PM 51.6667 -107.3333 17° North 340 391 16,500 -2,640 Descending Winnipeg Center
04:31PM 51.7500 -107.2667 26° Northeast 330 380 13,600 -2,460 Descending Winnipeg Center
04:32PM 51.8167 -107.2333 17° North 310 357 11,600 -1,920 Descending Winnipeg Center
04:33PM 51.9000 -107.1667 26° Northeast 300 345 9,800 -1,920 Descending Winnipeg Center
04:34PM 51.9667 -107.1167 25° Northeast 290 334 7,800 -1,980 Descending Winnipeg Center
04:35PM 52.0333 -107.0500 32° Northeast 280 322 5,900 -1,800 Descending Winnipeg Center
04:36PM 52.1167 -107.0000 20° North 270 311 4,300 -1,200 Descending Winnipeg Center
04:37PM 52.1667 -106.9500 32° Northeast 250 288 3,500 -660 Descending Winnipeg Center
04:38PM 52.2167 -106.8833 39° Northeast 220 253 3,000 -540 Descending Winnipeg Center